createdAt,value
2019-04-14T00:03:43.292Z,11.73
2019-04-14T00:08:00.359Z,14.97
2019-04-14T00:12:17.200Z,11.67
2019-04-14T00:16:33.770Z,11.20
2019-04-14T00:20:51.213Z,9.30
2019-04-14T00:25:08.679Z,12.77
2019-04-14T00:29:26.313Z,7.80
2019-04-14T00:33:43.264Z,8.73
2019-04-14T00:38:12.969Z,8.30
2019-04-14T00:42:29.847Z,7.20
2019-04-14T00:46:51.700Z,11.20
2019-04-14T00:51:09.159Z,9.53
2019-04-14T00:55:25.742Z,10.10
2019-04-14T00:59:42.146Z,12.63
2019-04-14T01:03:59.132Z,12.23
2019-04-14T01:08:16.344Z,11.47
2019-04-14T01:12:34.117Z,11.43
2019-04-14T01:16:51.736Z,8.37
2019-04-14T01:21:08.907Z,8.27
2019-04-14T01:25:26.079Z,11.77
2019-04-14T01:29:42.763Z,10.93
2019-04-14T01:33:59.811Z,10.73
2019-04-14T01:38:16.955Z,8.27
2019-04-14T01:42:33.503Z,10.40
2019-04-14T01:46:50.389Z,9.83
2019-04-14T01:51:26.642Z,20.27
2019-04-14T01:56:01.247Z,14.67
2019-04-14T02:00:20.824Z,15.17
2019-04-14T02:04:37.736Z,11.37
2019-04-14T02:08:54.829Z,16.77
2019-04-14T02:13:11.526Z,12.07
2019-04-14T02:17:28.525Z,16.10
2019-04-14T02:21:45.666Z,14.80
2019-04-14T02:26:02.510Z,9.77
2019-04-14T02:30:23.321Z,11.73
2019-04-14T02:35:02.980Z,11.17
2019-04-14T02:39:33.798Z,9.00
2019-04-14T02:43:49.339Z,19.50
2019-04-14T02:48:03.856Z,11.83
2019-04-14T02:52:19.707Z,12.53
2019-04-14T02:56:52.509Z,16.07
2019-04-14T03:01:05.471Z,12.87
2019-04-14T03:05:13.223Z,18.70
2019-04-14T03:13:51.719Z,19.60
2019-04-14T03:18:24.748Z,11.90
2019-04-14T03:22:45.911Z,14.47
2019-04-14T03:31:39.673Z,14.43
2019-04-14T03:40:01.164Z,9.00
2019-04-14T03:44:21.288Z,14.03
2019-04-14T03:48:56.039Z,11.80
2019-04-14T03:56:51.523Z,18.57
2019-04-14T04:01:08.385Z,12.40
2019-04-14T04:05:25.970Z,9.10
2019-04-14T04:09:45.445Z,10.43
2019-04-14T04:14:03.141Z,8.20
2019-04-14T04:18:21.987Z,22.40
2019-04-14T04:22:57.116Z,28.00
2019-04-14T04:27:33.030Z,14.90
2019-04-14T04:31:57.576Z,9.17
2019-04-14T04:36:20.261Z,7.43
2019-04-14T04:40:37.640Z,11.23
2019-04-14T04:44:55.235Z,17.80
2019-04-14T04:49:18.310Z,11.77
2019-04-14T04:53:30.974Z,13.83
2019-04-14T04:57:48.142Z,7.63
2019-04-14T05:02:04.899Z,8.73
2019-04-14T05:07:01.238Z,21.03
2019-04-14T05:11:23.071Z,11.90
2019-04-14T05:15:42.384Z,24.47
2019-04-14T05:19:59.061Z,16.63
2019-04-14T05:24:15.736Z,23.87
2019-04-14T05:28:33.209Z,27.50
2019-04-14T05:32:50.207Z,27.23
2019-04-14T05:37:07.217Z,25.60
2019-04-14T05:41:24.421Z,14.60
2019-04-14T05:45:41.621Z,25.20
2019-04-14T05:49:59.314Z,21.33
2019-04-14T05:54:16.331Z,21.30
2019-04-14T05:58:33.928Z,18.20
2019-04-14T06:02:50.795Z,21.90
2019-04-14T06:07:08.083Z,16.00
2019-04-14T06:11:24.749Z,20.00
2019-04-14T06:15:41.322Z,20.40
2019-04-14T06:19:57.916Z,11.57
2019-04-14T06:24:14.530Z,15.97
2019-04-14T06:28:31.430Z,19.10
2019-04-14T06:32:50.491Z,9.53
2019-04-14T06:37:07.025Z,18.00
2019-04-14T06:41:23.556Z,17.50
2019-04-14T06:45:40.403Z,19.37
2019-04-14T06:49:56.867Z,21.13
2019-04-14T06:54:13.480Z,18.97
2019-04-14T06:58:30.317Z,16.63
2019-04-14T07:02:48.081Z,19.50
2019-04-14T07:07:04.913Z,15.37
2019-04-14T07:11:21.935Z,22.47
2019-04-14T07:15:39.133Z,25.60
2019-04-14T07:20:01.996Z,21.03
2019-04-14T07:24:14.088Z,18.13
2019-04-14T07:28:31.049Z,18.80
2019-04-14T07:32:55.340Z,19.83
2019-04-14T07:37:26.763Z,20.57
2019-04-14T07:41:46.401Z,25.30
2019-04-14T07:46:13.952Z,22.20
2019-04-14T07:50:32.388Z,20.83
2019-04-14T07:54:49.883Z,23.73
2019-04-14T07:59:19.965Z,19.07
2019-04-14T08:03:55.060Z,17.97
2019-04-14T08:08:11.575Z,18.03
2019-04-14T08:12:28.149Z,21.57
2019-04-14T08:16:44.726Z,20.23
2019-04-14T08:21:02.781Z,17.43
2019-04-14T08:25:31.481Z,36.13
2019-04-14T08:29:48.255Z,26.50
2019-04-14T08:34:04.818Z,30.77
2019-04-14T08:38:21.411Z,29.87
2019-04-14T08:42:40.789Z,27.70
2019-04-14T08:47:16.079Z,28.87
2019-04-14T08:51:37.902Z,26.83
2019-04-14T08:56:12.556Z,23.53
2019-04-14T09:00:33.855Z,21.50
2019-04-14T09:04:55.097Z,22.03
2019-04-14T09:09:13.715Z,19.30
2019-04-14T09:13:30.379Z,21.83
2019-04-14T09:17:46.883Z,23.33
2019-04-14T09:22:03.515Z,14.93
2019-04-14T09:26:20.030Z,14.33
2019-04-14T09:30:36.525Z,9.30
2019-04-14T09:34:55.855Z,6.57
2019-04-14T09:39:12.860Z,6.57
2019-04-14T09:43:32.981Z,5.13
2019-04-14T09:47:50.761Z,5.17
2019-04-14T09:52:07.675Z,5.10
2019-04-14T09:56:24.562Z,5.23
2019-04-14T10:00:41.182Z,5.33
2019-04-14T10:04:57.832Z,5.40
2019-04-14T10:09:14.506Z,4.73
2019-04-14T10:13:31.531Z,7.77
2019-04-14T10:17:48.121Z,9.40
2019-04-14T10:22:05.257Z,37.47
2019-04-14T10:26:22.731Z,12.03
2019-04-14T10:30:39.329Z,7.83
2019-04-14T10:34:55.949Z,7.50
2019-04-14T10:39:13.596Z,6.67
2019-04-14T10:43:30.202Z,25.00
2019-04-14T10:47:46.983Z,27.67
2019-04-14T10:52:03.772Z,13.53
2019-04-14T10:56:20.898Z,9.40
2019-04-14T11:00:38.089Z,11.67
2019-04-14T11:04:54.665Z,6.37
2019-04-14T11:09:15.305Z,6.53
2019-04-14T11:13:31.881Z,7.17
2019-04-14T11:17:48.374Z,9.00
2019-04-14T11:22:05.145Z,18.83
2019-04-14T11:26:23.110Z,17.10
2019-04-14T11:30:39.780Z,11.67
2019-04-14T11:35:08.187Z,6.17
2019-04-14T11:39:25.033Z,4.97
2019-04-14T11:43:42.246Z,4.60
2019-04-14T11:48:01.088Z,5.33
2019-04-14T11:52:17.947Z,5.13
2019-04-14T11:56:34.568Z,4.80
2019-04-14T12:00:53.402Z,4.87
2019-04-14T12:05:18.057Z,4.43
2019-04-14T12:09:37.026Z,5.17
2019-04-14T12:13:53.733Z,4.37
2019-04-14T12:18:12.404Z,5.23
2019-04-14T12:22:30.411Z,4.67
2019-04-14T12:26:46.925Z,6.27
2019-04-14T12:31:06.415Z,6.63
2019-04-14T12:35:26.395Z,4.20
2019-04-14T12:39:43.159Z,5.70
2019-04-14T12:44:18.195Z,4.77
2019-04-14T12:48:36.745Z,7.17
2019-04-14T12:52:53.428Z,5.13
2019-04-14T12:57:10.304Z,6.50
2019-04-14T13:01:29.146Z,7.43
2019-04-14T13:05:46.039Z,4.67
2019-04-14T13:10:06.176Z,6.00
2019-04-14T13:14:23.835Z,6.50
2019-04-14T13:18:42.478Z,6.70
2019-04-14T13:23:01.373Z,6.23
2019-04-14T13:27:18.150Z,7.00
2019-04-14T13:31:34.928Z,6.63
2019-04-14T13:35:51.654Z,9.27
2019-04-14T13:40:10.068Z,12.13
2019-04-14T13:44:26.657Z,8.30
2019-04-14T13:48:43.372Z,7.80
2019-04-14T13:53:00.171Z,6.93
2019-04-14T13:57:17.311Z,6.93
2019-04-14T14:01:33.942Z,6.93
2019-04-14T14:05:50.585Z,7.73
2019-04-14T14:10:08.079Z,6.77
2019-04-14T14:14:29.908Z,6.50
2019-04-14T14:18:50.988Z,6.43
2019-04-14T14:23:12.762Z,8.90
2019-04-14T14:27:30.445Z,12.30
2019-04-14T14:31:47.623Z,9.10
2019-04-14T14:36:05.251Z,9.00
2019-04-14T14:40:22.596Z,10.17
2019-04-14T14:44:41.041Z,7.13
2019-04-14T14:49:05.808Z,17.97
2019-04-14T14:53:22.497Z,11.63
2019-04-14T14:57:39.247Z,11.40
2019-04-14T15:01:59.413Z,13.30
2019-04-14T15:06:18.533Z,14.40
2019-04-14T15:10:35.955Z,15.40
2019-04-14T15:14:52.563Z,16.63
2019-04-14T15:19:09.337Z,22.27
2019-04-14T15:23:27.935Z,25.33
2019-04-14T15:27:44.574Z,17.43
2019-04-14T15:32:02.271Z,22.83
2019-04-14T15:36:20.783Z,21.50
2019-04-14T15:40:38.346Z,27.43
2019-04-14T15:44:55.529Z,23.13
2019-04-14T15:49:12.060Z,24.87
2019-04-14T15:53:37.834Z,27.37
2019-04-14T15:58:08.010Z,30.37
2019-04-14T16:02:26.602Z,33.73
2019-04-14T16:06:46.198Z,35.03
2019-04-14T16:11:07.838Z,36.07
2019-04-14T16:15:30.287Z,32.43
2019-04-14T16:19:58.480Z,36.07
2019-04-14T16:24:16.579Z,27.60
2019-04-14T16:28:38.709Z,55.43
2019-04-14T16:33:04.820Z,42.43
2019-04-14T16:37:25.792Z,39.73
2019-04-14T16:41:42.849Z,41.27
2019-04-14T16:45:59.491Z,36.33
2019-04-14T16:50:18.293Z,23.03
2019-04-14T16:54:42.586Z,39.83
2019-04-14T16:59:01.432Z,39.27
2019-04-14T17:03:28.833Z,28.63
2019-04-14T17:07:48.076Z,27.23
2019-04-14T17:12:04.660Z,37.87
2019-04-14T17:16:27.290Z,61.17
2019-04-14T17:21:02.494Z,52.87
2019-04-14T17:25:24.395Z,54.73
2019-04-14T17:29:57.797Z,45.03
2019-04-14T17:34:24.657Z,41.47
2019-04-14T17:38:43.245Z,29.40
2019-04-14T17:43:09.747Z,53.83
2019-04-14T17:47:37.551Z,32.63
2019-04-14T17:52:14.219Z,52.90
2019-04-14T17:56:32.690Z,46.27
2019-04-14T18:01:09.165Z,52.00
2019-04-14T18:05:30.896Z,59.53
2019-04-14T18:09:53.667Z,73.30
2019-04-14T18:14:24.248Z,57.63
2019-04-14T18:18:42.688Z,32.47
2019-04-14T18:22:59.239Z,28.73
2019-04-14T18:27:16.109Z,26.07
2019-04-14T18:31:34.581Z,29.37
2019-04-14T18:35:58.606Z,40.63
2019-04-14T18:40:20.865Z,24.60
2019-04-14T18:44:42.065Z,49.17
2019-04-14T18:49:17.634Z,50.30
2019-04-14T18:53:38.041Z,80.70
2019-04-14T18:58:08.757Z,67.87
2019-04-14T19:02:27.307Z,26.27
2019-04-14T19:06:46.959Z,41.13
2019-04-14T19:11:13.581Z,70.73
2019-04-14T19:15:32.122Z,51.10
2019-04-14T19:20:00.780Z,82.30
2019-04-14T19:24:09.205Z,58.67
2019-04-14T19:28:25.725Z,76.87
2019-04-14T19:32:44.467Z,75.60
2019-04-14T19:37:01.073Z,45.37
2019-04-14T19:41:17.622Z,43.47
2019-04-14T19:45:34.121Z,28.80
2019-04-14T19:49:50.678Z,39.07
2019-04-14T19:54:07.359Z,25.60
2019-04-14T19:58:24.132Z,36.53
2019-04-14T20:02:40.953Z,35.83
2019-04-14T20:06:58.074Z,36.40
2019-04-14T20:11:14.837Z,44.27
2019-04-14T20:15:33.572Z,23.13
2019-04-14T20:19:50.145Z,45.90
2019-04-14T20:24:25.235Z,69.33
2019-04-14T20:28:43.799Z,33.43
2019-04-14T20:33:00.978Z,30.37
2019-04-14T20:37:17.533Z,33.20
2019-04-14T20:41:34.016Z,25.00
2019-04-14T20:45:51.966Z,56.60
2019-04-14T20:50:09.513Z,68.77
2019-04-14T20:54:26.299Z,42.90
2019-04-14T20:58:42.837Z,40.73
2019-04-14T21:03:18.184Z,42.50
2019-04-14T21:07:37.565Z,31.73
2019-04-14T21:11:54.126Z,24.33
2019-04-14T21:16:16.246Z,29.50
2019-04-14T21:20:49.494Z,69.17
2019-04-14T21:25:14.165Z,30.83
2019-04-14T21:29:32.910Z,32.10
2019-04-14T21:33:51.301Z,28.63
2019-04-14T21:38:27.980Z,56.50
2019-04-14T21:42:44.832Z,44.63
2019-04-14T21:47:01.557Z,56.73
2019-04-14T21:51:18.104Z,56.03
2019-04-14T21:55:34.809Z,59.97
2019-04-14T22:00:09.927Z,25.30
2019-04-14T22:04:31.680Z,45.10
2019-04-14T22:08:51.846Z,62.13
2019-04-14T22:13:13.335Z,60.80
2019-04-14T22:17:30.119Z,37.80
2019-04-14T22:21:47.564Z,21.33
2019-04-14T22:26:05.377Z,25.10
2019-04-14T22:30:22.499Z,33.20
2019-04-14T22:34:42.118Z,32.77
2019-04-14T22:38:58.710Z,32.70
2019-04-14T22:43:15.334Z,27.57
2019-04-14T22:47:31.999Z,62.10
2019-04-14T22:51:48.447Z,25.93
2019-04-14T22:56:05.189Z,17.03
2019-04-14T23:00:41.986Z,49.43
2019-04-14T23:05:10.325Z,32.23
2019-04-14T23:09:34.412Z,27.00
2019-04-14T23:14:09.401Z,78.80
2019-04-14T23:18:28.893Z,34.07
2019-04-14T23:22:54.496Z,43.33
2019-04-14T23:27:11.040Z,39.63
2019-04-14T23:31:27.545Z,25.03
2019-04-14T23:35:43.971Z,40.43
2019-04-14T23:40:00.415Z,28.87
2019-04-14T23:44:16.950Z,43.67
2019-04-14T23:48:33.483Z,27.03
2019-04-14T23:52:49.941Z,48.27
2019-04-14T23:57:06.886Z,32.67
